This is the latest recevied weather packets stored in our database for station/object HS2LXA-WX. If no packets are shown the sender has not sent any weather packets the latest 10 day(s).
| Time | Temp. | Humidity | Pressure | Rain* | Wind** | Luminosity | Snow |
|---|---|---|---|---|---|---|---|
| 1777658008 | 32.22° C | 73% | 1013.1 hPa | 0 mm | - | - | - |
| 1777657409 | 31.67° C | 76% | 1013.1 hPa | 0 mm | - | - | - |
| 1777656808 | 30.56° C | 81% | 1013.1 hPa | 0 mm | - | - | - |
| 1777655855 | 30.56° C | 81% | 1013.2 hPa | 0 mm | - | - | - |
| 1777654981 | 30.56° C | 81% | 1013.1 hPa | 0 mm | - | - | - |
| 1777654211 | 30.56° C | 81% | 1013.1 hPa | 0 mm | - | - | - |
| 1777653607 | 31.11° C | 80% | 1013.2 hPa | 0 mm | - | - | - |
| 1777653006 | 30.56° C | 80% | 1013.1 hPa | 0 mm | - | - | - |
| 1777652405 | 30° C | 83% | 1013.2 hPa | 0 mm | - | - | - |
| 1777651752 | 30.56° C | 83% | 1013.1 hPa | 0 mm | - | - | - |
| 1777651154 | 30° C | 83% | 1013.2 hPa | 0 mm | - | - | - |
| 1777649758 | 30° C | 85% | 1013.1 hPa | 0 mm | - | - | - |
| 1777648721 | 30° C | 84% | 1013.1 hPa | 0 mm | - | - | - |
| 1777648116 | 30.56° C | 84% | 1013.1 hPa | 0 mm | - | - | - |
| 1777647516 | 30° C | 83% | 1013.1 hPa | 0 mm | - | - | - |
| 1777646916 | 30.56° C | 81% | 1013.2 hPa | 0 mm | - | - | - |
| 1777646313 | 30.56° C | 81% | 1013.1 hPa | 0 mm | - | - | - |
| 1777645713 | 30.56° C | 82% | 1013.2 hPa | 0 mm | - | - | - |
| 1777645113 | 30.56° C | 80% | 1013.1 hPa | 0 mm | - | - | - |
| 1777643948 | 30.56° C | 79% | 1013.1 hPa | 0 mm | - | - | - |
| 1777643345 | 30.56° C | 78% | 1013.1 hPa | 0 mm | - | - | - |
| 1777642743 | 30.56° C | 80% | 1013.1 hPa | 0 mm | - | - | - |
| 1777642143 | 30.56° C | 78% | 1013.2 hPa | 0 mm | - | - | - |
| 1777641543 | 31.11° C | 77% | 1013.1 hPa | 0 mm | - | - | - |
| 1777640943 | 31.11° C | 77% | 1013.2 hPa | 0 mm | - | - | - |
* Rain latest hour (hover to see other rain measurements)
** Current wind speed in m/s (hover to see current wind gust speed)